createdAt,value
2023-04-15T00:02:20.756Z,21.85
2023-04-15T00:07:25.141Z,13.52
2023-04-15T00:12:29.821Z,9.15
2023-04-15T00:17:35.414Z,5.88
2023-04-15T00:22:39.935Z,11.18
2023-04-15T00:27:43.950Z,18.50
2023-04-15T00:32:49.645Z,15.88
2023-04-15T00:37:58.545Z,28.08
2023-04-15T00:43:03.111Z,24.45
2023-04-15T00:48:09.636Z,26.27
2023-04-15T00:53:13.641Z,38.70
2023-04-15T00:58:18.487Z,31.23
2023-04-15T01:03:24.240Z,41.13
2023-04-15T01:08:30.069Z,37.08
2023-04-15T01:13:37.721Z,48.97
2023-04-15T01:18:43.428Z,44.50
2023-04-15T01:23:49.377Z,26.02
2023-04-15T01:28:54.995Z,27.70
2023-04-15T01:33:59.243Z,23.38
2023-04-15T01:39:22.752Z,15.32
2023-04-15T01:44:28.008Z,14.55
2023-04-15T01:49:34.151Z,11.82
2023-04-15T01:54:40.050Z,17.20
2023-04-15T01:59:47.668Z,25.35
2023-04-15T02:04:53.930Z,14.90
2023-04-15T02:10:00.937Z,14.20
2023-04-15T02:15:09.464Z,16.98
2023-04-15T02:20:14.855Z,16.55
2023-04-15T02:25:20.616Z,16.55
2023-04-15T02:30:27.389Z,28.13
2023-04-15T02:35:32.974Z,25.33
2023-04-15T02:40:38.647Z,25.48
2023-04-15T02:45:48.875Z,30.98
2023-04-15T02:50:54.538Z,20.13
2023-04-15T02:56:00.170Z,14.18
2023-04-15T03:01:07.711Z,14.57
2023-04-15T03:06:13.966Z,7.63
2023-04-15T03:11:19.507Z,8.50
2023-04-15T03:16:28.077Z,8.48
2023-04-15T03:21:33.489Z,8.53
2023-04-15T03:26:38.915Z,13.77
2023-04-15T03:31:52.239Z,14.65
2023-04-15T03:36:58.134Z,19.00
2023-04-15T03:42:04.006Z,10.40
2023-04-15T03:47:11.123Z,7.88
2023-04-15T03:52:16.498Z,11.00
2023-04-15T03:57:22.128Z,10.95
2023-04-15T04:02:29.397Z,10.50
2023-04-15T04:07:34.795Z,24.92
2023-04-15T04:12:40.151Z,17.10
2023-04-15T04:17:46.915Z,12.82
2023-04-15T04:22:52.222Z,19.52
2023-04-15T04:27:57.630Z,17.90
2023-04-15T04:38:36.622Z,26.08
2023-04-15T04:43:43.017Z,36.42
2023-04-15T04:48:50.188Z,38.10
2023-04-15T04:53:56.767Z,39.28
2023-04-15T04:59:02.257Z,34.55
2023-04-15T05:04:09.392Z,68.40
2023-04-15T05:09:17.311Z,38.40
2023-04-15T05:14:23.515Z,20.02
2023-04-15T05:19:31.834Z,16.95
2023-04-15T05:24:37.681Z,15.45
2023-04-15T05:29:43.246Z,13.35
2023-04-15T05:34:50.527Z,9.00
2023-04-15T05:39:57.116Z,9.30
2023-04-15T05:45:05.489Z,17.73
2023-04-15T05:50:12.899Z,10.23
2023-04-15T05:55:18.454Z,70.82
2023-04-15T06:00:24.453Z,45.65
2023-04-15T06:05:34.784Z,29.42
2023-04-15T06:10:40.392Z,26.65
2023-04-15T06:15:47.035Z,9.57
2023-04-15T06:20:55.544Z,7.75
2023-04-15T06:26:01.242Z,9.60
2023-04-15T06:31:08.063Z,11.32
2023-04-15T06:36:15.643Z,17.02
2023-04-15T06:41:21.468Z,10.48
2023-04-15T06:46:29.723Z,4.82
2023-04-15T06:51:38.142Z,8.70
2023-04-15T06:56:43.458Z,14.77
2023-04-15T07:01:49.388Z,12.45
2023-04-15T07:06:56.943Z,15.60
2023-04-15T07:12:04.222Z,10.00
2023-04-15T07:17:11.597Z,8.75
2023-04-15T07:22:19.243Z,4.75
2023-04-15T07:27:24.648Z,3.60
2023-04-15T07:32:30.405Z,2.42
2023-04-15T07:37:37.429Z,1.65
2023-04-15T07:42:43.886Z,3.65
2023-04-15T07:47:49.689Z,3.60
2023-04-15T07:52:57.830Z,1.33
2023-04-15T07:58:03.573Z,4.60
2023-04-15T08:03:09.058Z,2.20
2023-04-15T08:08:16.842Z,2.97
2023-04-15T08:13:22.670Z,2.47
2023-04-15T08:18:27.959Z,2.78
2023-04-15T08:23:35.100Z,3.58
2023-04-15T08:28:42.346Z,2.63
2023-04-15T08:33:50.130Z,1.40
2023-04-15T08:38:57.774Z,4.60
2023-04-15T08:44:06.001Z,4.75
2023-04-15T08:49:13.680Z,3.67
2023-04-15T08:54:21.673Z,2.88
2023-04-15T08:59:27.528Z,4.72
2023-04-15T09:04:33.339Z,0.82
2023-04-15T09:09:43.392Z,3.15
2023-04-15T09:14:49.508Z,0.73
2023-04-15T09:20:10.035Z,2.25
2023-04-15T09:25:34.295Z,2.88
2023-04-15T09:30:46.916Z,1.15
2023-04-15T09:36:01.601Z,8.05
2023-04-15T09:41:19.290Z,2.00
2023-04-15T09:46:43.787Z,2.35
2023-04-15T09:52:04.072Z,2.25
2023-04-15T09:57:12.393Z,2.58
2023-04-15T10:02:20.076Z,6.18
2023-04-15T10:07:26.975Z,3.80
2023-04-15T10:12:34.547Z,7.20
2023-04-15T10:17:43.353Z,2.03
2023-04-15T10:22:49.779Z,5.30
2023-04-15T10:27:58.021Z,2.03
2023-04-15T10:33:07.881Z,1.65
2023-04-15T10:38:40.536Z,3.00
2023-04-15T10:43:55.279Z,11.30
2023-04-15T10:49:08.134Z,3.08
2023-04-15T10:54:16.570Z,2.33
2023-04-15T10:59:24.439Z,7.63
2023-04-15T11:04:57.361Z,2.42
2023-04-15T11:10:04.043Z,2.53
2023-04-15T11:15:33.024Z,1.75
2023-04-15T11:20:39.482Z,4.40
2023-04-15T11:25:45.775Z,1.92
2023-04-15T11:30:54.326Z,14.68
2023-04-15T11:36:00.658Z,1.92
2023-04-15T11:41:06.418Z,7.93
2023-04-15T11:46:13.598Z,3.22
2023-04-15T11:51:21.123Z,5.30
2023-04-15T11:56:26.612Z,2.53
2023-04-15T12:01:39.626Z,1.13
2023-04-15T12:06:43.967Z,3.75
2023-04-15T12:17:18.078Z,1.35
2023-04-15T12:22:25.490Z,2.10
2023-04-15T12:27:29.883Z,1.50
2023-04-15T12:32:38.729Z,4.15
2023-04-15T12:37:44.067Z,4.82
2023-04-15T12:42:48.903Z,6.85
2023-04-15T12:47:54.668Z,4.65
2023-04-15T12:52:59.140Z,2.60
2023-04-15T12:58:03.887Z,5.15
2023-04-15T13:03:09.576Z,4.78
2023-04-15T13:08:13.840Z,2.42
2023-04-15T13:13:18.136Z,3.38
2023-04-15T13:18:24.183Z,3.25
2023-04-15T13:23:29.224Z,5.40
2023-04-15T13:28:33.475Z,2.35
2023-04-15T13:33:39.090Z,9.02
2023-04-15T13:38:43.399Z,2.88
2023-04-15T13:43:47.460Z,8.80
2023-04-15T13:48:52.903Z,4.57
2023-04-15T13:53:58.257Z,3.85
2023-04-15T13:59:03.275Z,1.95
2023-04-15T14:04:11.246Z,3.20
2023-04-15T14:09:16.110Z,2.65
2023-04-15T14:14:20.617Z,6.05
2023-04-15T14:19:26.692Z,3.65
2023-04-15T14:24:32.137Z,18.67
2023-04-15T14:29:37.245Z,3.00
2023-04-15T14:34:43.337Z,10.93
2023-04-15T14:39:48.939Z,6.35
2023-04-15T14:44:53.065Z,5.10
2023-04-15T14:49:59.233Z,3.58
2023-04-15T14:55:04.069Z,3.92
2023-04-15T15:00:10.007Z,4.00
2023-04-15T15:05:18.180Z,5.57
2023-04-15T15:10:44.177Z,4.25
2023-04-15T15:15:50.820Z,9.38
2023-04-15T15:20:59.853Z,9.70
2023-04-15T15:26:04.217Z,4.28
2023-04-15T15:31:10.685Z,12.85
2023-04-15T15:36:19.162Z,10.07
2023-04-15T15:41:23.218Z,7.97
2023-04-15T15:46:28.408Z,24.38
2023-04-15T15:51:34.009Z,19.17
2023-04-15T15:56:39.588Z,20.60
2023-04-15T16:01:44.521Z,25.05
2023-04-15T16:06:50.242Z,13.30
2023-04-15T16:11:55.578Z,18.58
2023-04-15T16:17:00.390Z,23.30
2023-04-15T16:22:06.221Z,25.00
2023-04-15T16:27:16.122Z,24.10
2023-04-15T16:32:20.298Z,14.45
2023-04-15T16:37:25.976Z,28.85
2023-04-15T16:42:30.998Z,22.13
2023-04-15T16:47:35.368Z,29.85
2023-04-15T16:52:40.830Z,23.13
2023-04-15T16:58:00.946Z,8.82
2023-04-15T17:03:07.501Z,8.80
2023-04-15T17:08:14.377Z,16.73
2023-04-15T17:13:18.650Z,21.65
2023-04-15T17:18:23.111Z,24.25
2023-04-15T17:23:41.358Z,40.53
2023-04-15T17:28:46.168Z,34.47
2023-04-15T17:34:02.010Z,32.90
2023-04-15T17:39:15.741Z,26.73
2023-04-15T17:44:41.311Z,58.97
2023-04-15T17:50:05.521Z,49.95
2023-04-15T17:55:31.107Z,36.75
2023-04-15T18:00:55.368Z,41.70
2023-04-15T18:06:22.115Z,16.48
2023-04-15T18:11:48.517Z,42.30
2023-04-15T18:17:15.453Z,39.15
2023-04-15T18:22:39.508Z,90.22
2023-04-15T18:27:45.964Z,73.10
2023-04-15T18:32:50.282Z,44.03
2023-04-15T18:37:54.536Z,71.63
2023-04-15T18:43:02.796Z,46.15
2023-04-15T18:48:08.541Z,24.17
2023-04-15T18:53:13.660Z,37.97
2023-04-15T18:58:19.577Z,26.08
2023-04-15T19:03:24.065Z,25.70
2023-04-15T19:08:29.782Z,31.92
2023-04-15T19:13:35.776Z,42.58
2023-04-15T19:18:39.791Z,34.78
2023-04-15T19:23:44.860Z,30.27
2023-04-15T19:28:53.219Z,34.08
2023-04-15T19:33:58.129Z,43.58
2023-04-15T19:39:02.720Z,27.60
2023-04-15T19:44:09.156Z,32.33
2023-04-15T19:49:15.814Z,24.42
2023-04-15T19:54:20.091Z,23.35
2023-04-15T19:59:27.798Z,40.45
2023-04-15T20:04:32.644Z,16.73
2023-04-15T20:09:37.540Z,8.77
2023-04-15T20:14:45.230Z,19.02
2023-04-15T20:19:49.306Z,16.52
2023-04-15T20:24:53.581Z,15.27
2023-04-15T20:29:59.092Z,23.80
2023-04-15T20:35:03.916Z,15.77
2023-04-15T20:40:09.483Z,13.07
2023-04-15T20:45:16.453Z,10.95
2023-04-15T20:50:21.118Z,13.40
2023-04-15T20:55:25.107Z,15.25
2023-04-15T21:00:33.295Z,10.15
2023-04-15T21:05:37.516Z,18.80
2023-04-15T21:10:41.606Z,14.13
2023-04-15T21:15:50.409Z,16.02
2023-04-15T21:20:58.178Z,20.15
2023-04-15T21:26:02.776Z,16.45
2023-04-15T21:31:08.665Z,10.18
2023-04-15T21:36:12.698Z,18.55
2023-04-15T21:41:16.716Z,11.07
2023-04-15T21:46:32.957Z,7.18
2023-04-15T21:51:39.167Z,7.68
2023-04-15T21:56:43.866Z,5.65
2023-04-15T22:01:49.573Z,7.53
2023-04-15T22:06:58.349Z,13.05
2023-04-15T22:12:02.407Z,8.30
2023-04-15T22:17:09.851Z,12.90
2023-04-15T22:22:13.892Z,13.13
2023-04-15T22:27:18.023Z,12.40
2023-04-15T22:32:24.537Z,24.17
2023-04-15T22:37:30.584Z,18.50
2023-04-15T22:42:35.640Z,10.23
2023-04-15T22:47:41.117Z,13.65
2023-04-15T22:52:46.349Z,7.55
2023-04-15T22:57:50.605Z,8.27
2023-04-15T23:02:56.406Z,13.75
2023-04-15T23:08:00.519Z,14.70
2023-04-15T23:13:04.547Z,8.88
2023-04-15T23:18:10.254Z,8.85
2023-04-15T23:23:15.824Z,5.18
2023-04-15T23:28:19.889Z,9.75
2023-04-15T23:33:26.297Z,13.57
2023-04-15T23:38:30.781Z,7.80
2023-04-15T23:43:34.928Z,8.13
2023-04-15T23:48:40.787Z,10.23
2023-04-15T23:53:45.000Z,11.70
2023-04-15T23:58:49.215Z,7.13
